Time;durP1;ratioP1;P1;durP2;ratioP2;P2;SDS_P1;SDS_P2;PMS_P1;PMS_P2;Temp;Humidity;BMP_temperature;BMP_pressure;BME280_temperature;BME280_humidity;BME280_pressure;Samples;Min_cycle;Max_cycle;Signal;HPM_P1;HPM_P2
2023/10/30 00:01:39;;;;;;;1.50;0.75;;;10.50;99.90;;;;;;4982068;28;20054;-77
2023/10/30 00:04:05;;;;;;;4.82;0.90;;;10.50;99.90;;;;;;4997213;28;20053;-78
2023/10/30 00:06:32;;;;;;;5.20;2.88;;;10.50;99.90;;;;;;4981574;28;20049;-77
2023/10/30 00:08:58;;;;;;;1.50;0.60;;;10.50;99.90;;;;;;4964644;28;20046;-77
2023/10/30 00:11:23;;;;;;;1.15;0.63;;;10.50;99.90;;;;;;4980188;28;20157;-77
2023/10/30 00:13:49;;;;;;;2.05;0.90;;;10.50;99.90;;;;;;4987850;28;20133;-77
2023/10/30 00:16:15;;;;;;;3.85;0.47;;;10.50;99.90;;;;;;4982698;28;20050;-77
2023/10/30 00:18:41;;;;;;;0.30;0.30;;;10.50;99.90;;;;;;4982948;28;20053;-77
2023/10/30 00:21:10;;;;;;;2.95;0.82;;;10.50;99.90;;;;;;4981621;28;20066;-77
2023/10/30 00:23:36;;;;;;;1.42;0.80;;;10.50;99.90;;;;;;4981342;28;20481;-78
2023/10/30 00:26:03;;;;;;;2.50;0.68;;;10.50;99.90;;;;;;4983836;28;20061;-77
2023/10/30 00:28:30;;;;;;;1.20;0.75;;;10.50;99.90;;;;;;4982653;28;20054;-77
2023/10/30 00:30:56;;;;;;;2.08;0.50;;;10.50;99.90;;;;;;4983016;28;20129;-77
2023/10/30 00:33:22;;;;;;;1.42;0.88;;;10.50;99.90;;;;;;4981235;28;20085;-77
2023/10/30 00:35:47;;;;;;;0.93;0.65;;;10.50;99.90;;;;;;4981307;28;20140;-77
2023/10/30 00:38:13;;;;;;;1.42;0.80;;;10.50;99.90;;;;;;4981555;28;20046;-77
2023/10/30 00:40:38;;;;;;;3.97;1.98;;;10.50;99.90;;;;;;4982858;28;20042;-77
2023/10/30 00:43:04;;;;;;;1.23;0.40;;;10.40;99.90;;;;;;4982586;28;20496;-77
2023/10/30 00:45:30;;;;;;;0.68;0.55;;;10.40;99.90;;;;;;4981263;28;20065;-77
2023/10/30 00:47:56;;;;;;;3.80;1.40;;;10.40;99.90;;;;;;4983290;28;20538;-78
2023/10/30 00:50:21;;;;;;;3.30;1.08;;;10.40;99.90;;;;;;4988999;28;20085;-76
2023/10/30 00:52:47;;;;;;;2.00;0.45;;;10.40;99.90;;;;;;4981653;28;20069;-77
2023/10/30 00:55:13;;;;;;;2.10;1.33;;;10.30;99.90;;;;;;4980257;28;20046;-77
2023/10/30 00:57:39;;;;;;;2.97;0.77;;;10.40;99.90;;;;;;4982391;28;20042;-77
2023/10/30 01:00:05;;;;;;;1.75;0.40;;;10.40;99.90;;;;;;4982279;28;20049;-77
2023/10/30 01:02:31;;;;;;;2.00;0.85;;;10.40;99.90;;;;;;4980842;28;20050;-76
2023/10/30 01:04:57;;;;;;;2.47;0.57;;;10.30;99.90;;;;;;4964770;28;20566;-77
2023/10/30 01:07:23;;;;;;;2.88;0.40;;;10.30;99.90;;;;;;4980050;28;20046;-77
2023/10/30 01:09:49;;;;;;;4.65;1.23;;;10.40;99.90;;;;;;4980337;28;20073;-77
2023/10/30 01:12:14;;;;;;;1.17;0.85;;;10.30;99.90;;;;;;4982490;28;20238;-77
2023/10/30 01:14:40;;;;;;;3.20;0.47;;;10.30;99.90;;;;;;4980922;28;20125;-77
2023/10/30 01:17:06;;;;;;;3.60;0.43;;;10.30;99.90;;;;;;4986007;28;20046;-78
2023/10/30 01:19:31;;;;;;;2.65;0.95;;;10.30;99.90;;;;;;4985931;28;20246;-77
2023/10/30 01:21:57;;;;;;;0.45;0.45;;;10.40;99.90;;;;;;4985946;28;20058;-77
2023/10/30 01:24:22;;;;;;;1.15;0.73;;;10.40;99.90;;;;;;4984439;28;20536;-77
2023/10/30 01:26:48;;;;;;;3.30;0.70;;;10.40;99.90;;;;;;4984587;28;20054;-77
2023/10/30 01:29:14;;;;;;;1.95;0.60;;;10.30;99.90;;;;;;4984021;28;20477;-77
2023/10/30 01:31:39;;;;;;;2.05;0.38;;;10.40;99.90;;;;;;4985411;28;20049;-77
2023/10/30 01:34:05;;;;;;;3.50;0.60;;;10.40;99.90;;;;;;4985299;28;20062;-78
2023/10/30 01:36:31;;;;;;;0.90;0.30;;;10.30;99.90;;;;;;4985602;28;20073;-77
2023/10/30 01:38:58;;;;;;;1.33;0.32;;;10.40;99.90;;;;;;4983926;28;20046;-77
2023/10/30 01:41:24;;;;;;;3.70;0.30;;;10.30;99.90;;;;;;4985799;28;20081;-77
2023/10/30 01:43:49;;;;;;;1.42;0.40;;;10.40;99.90;;;;;;4985430;28;20038;-77
2023/10/30 01:46:15;;;;;;;1.90;0.65;;;10.40;99.90;;;;;;4984285;28;20137;-77
2023/10/30 01:48:41;;;;;;;2.10;0.20;;;10.30;99.90;;;;;;4985179;28;20042;-77
2023/10/30 01:51:07;;;;;;;0.50;0.38;;;10.30;99.90;;;;;;4982994;28;20065;-77
2023/10/30 01:53:34;;;;;;;4.10;0.55;;;10.30;99.90;;;;;;4985938;28;20046;-77
2023/10/30 01:56:04;;;;;;;2.55;0.68;;;10.30;99.90;;;;;;4984491;28;20034;-77
2023/10/30 01:58:30;;;;;;;1.70;0.77;;;10.30;99.90;;;;;;4984598;28;20644;-77
2023/10/30 02:00:57;;;;;;;0.25;0.25;;;10.30;99.90;;;;;;4983880;28;20042;-77
2023/10/30 02:03:23;;;;;;;0.80;0.30;;;10.30;99.90;;;;;;4967840;28;20517;-77
2023/10/30 02:05:50;;;;;;;1.42;0.65;;;10.30;99.90;;;;;;4983115;28;20046;-77
2023/10/30 02:08:16;;;;;;;0.35;0.30;;;10.30;99.90;;;;;;4983728;28;20086;-77
2023/10/30 02:10:41;;;;;;;3.22;0.68;;;10.20;99.90;;;;;;4983656;28;20486;-77
2023/10/30 02:13:08;;;;;;;0.93;0.93;;;10.30;99.90;;;;;;4984019;28;20046;-77
2023/10/30 02:15:33;;;;;;;2.17;0.43;;;10.20;99.90;;;;;;4984677;28;20045;-77
2023/10/30 02:17:59;;;;;;;1.38;0.32;;;10.20;99.90;;;;;;4968273;28;20054;-77
2023/10/30 02:20:25;;;;;;;0.25;0.25;;;10.20;99.90;;;;;;4984703;28;20494;-77
2023/10/30 02:22:51;;;;;;;0.30;0.20;;;10.20;99.90;;;;;;4983969;28;20422;-77
2023/10/30 02:25:18;;;;;;;0.68;0.30;;;10.10;99.90;;;;;;4984906;28;20074;-77
2023/10/30 02:27:44;;;;;;;0.57;0.57;;;10.10;99.90;;;;;;4984562;28;20034;-77
2023/10/30 02:30:13;;;;;;;0.32;0.22;;;10.10;99.90;;;;;;4985057;28;20054;-77
2023/10/30 02:32:44;;;;;;;0.40;0.40;;;10.10;99.90;;;;;;4984191;28;20034;-77
2023/10/30 02:35:13;;;;;;;0.77;0.30;;;10.10;99.90;;;;;;4983234;28;20057;-77
2023/10/30 02:37:39;;;;;;;1.70;0.40;;;10.10;99.90;;;;;;4984073;28;20409;-77
2023/10/30 02:40:05;;;;;;;0.40;0.40;;;10.10;99.90;;;;;;4993186;28;20041;-77
2023/10/30 02:42:31;;;;;;;1.40;0.13;;;10.10;99.90;;;;;;4997354;28;20050;-76
2023/10/30 02:44:56;;;;;;;1.25;0.45;;;10.00;99.90;;;;;;4999505;28;20034;-76
2023/10/30 02:47:24;;;;;;;1.55;0.50;;;10.00;99.90;;;;;;4984037;28;20039;-77
2023/10/30 02:49:49;;;;;;;0.45;0.32;;;10.00;99.90;;;;;;4983322;28;20054;-76
2023/10/30 02:52:15;;;;;;;1.05;0.70;;;10.00;99.90;;;;;;4983091;28;20049;-76
2023/10/30 02:54:40;;;;;;;0.30;0.30;;;10.00;99.90;;;;;;4984434;28;20140;-77
2023/10/30 02:57:06;;;;;;;0.93;0.40;;;9.90;99.90;;;;;;4984298;28;20066;-77
2023/10/30 02:59:31;;;;;;;1.17;0.60;;;9.90;99.90;;;;;;4983673;28;20112;-77
2023/10/30 03:01:58;;;;;;;3.47;1.48;;;9.90;99.90;;;;;;4982609;28;20052;-76
2023/10/30 03:04:24;;;;;;;0.75;0.60;;;9.90;99.90;;;;;;4981854;28;20129;-76
2023/10/30 03:06:50;;;;;;;2.58;1.00;;;9.90;99.90;;;;;;4983558;28;20085;-76
2023/10/30 03:09:16;;;;;;;0.70;0.70;;;9.90;99.90;;;;;;4983654;28;20687;-76
2023/10/30 03:11:41;;;;;;;3.78;1.05;;;9.90;99.90;;;;;;4983928;28;20042;-76
2023/10/30 03:14:07;;;;;;;0.38;0.35;;;9.90;99.90;;;;;;4984193;28;20069;-76
2023/10/30 03:16:34;;;;;;;1.92;0.80;;;9.90;99.90;;;;;;4983919;28;20475;-77
2023/10/30 03:18:59;;;;;;;1.50;0.60;;;9.80;99.90;;;;;;4982749;28;20143;-76
2023/10/30 03:21:25;;;;;;;1.90;0.45;;;9.80;99.90;;;;;;4980963;28;20069;-76
2023/10/30 03:23:51;;;;;;;3.05;1.48;;;9.80;99.90;;;;;;4984285;28;20042;-76
2023/10/30 03:26:16;;;;;;;2.53;0.90;;;9.80;99.90;;;;;;4982156;28;20049;-76
2023/10/30 03:28:42;;;;;;;1.88;0.70;;;9.80;99.90;;;;;;4966026;28;20540;-76
2023/10/30 03:31:12;;;;;;;1.30;1.02;;;9.80;99.90;;;;;;4982571;28;20073;-76
2023/10/30 03:33:37;;;;;;;1.40;1.00;;;9.80;99.90;;;;;;4982369;28;20049;-76
2023/10/30 03:36:03;;;;;;;3.85;1.20;;;9.80;99.90;;;;;;4997636;28;20424;-76
2023/10/30 03:38:29;;;;;;;3.95;1.13;;;9.80;99.90;;;;;;4983306;28;20469;-76
2023/10/30 03:40:55;;;;;;;4.55;1.17;;;9.80;99.90;;;;;;4984133;28;20038;-76
2023/10/30 03:43:20;;;;;;;1.88;0.88;;;9.80;99.90;;;;;;4965537;28;20061;-76
2023/10/30 03:45:46;;;;;;;1.77;1.30;;;9.70;99.90;;;;;;4982219;28;20046;-76
2023/10/30 03:48:11;;;;;;;4.55;0.80;;;9.70;99.90;;;;;;4981674;28;20467;-76
2023/10/30 03:50:37;;;;;;;2.13;0.60;;;9.80;99.90;;;;;;4980986;28;20038;-76
2023/10/30 03:53:03;;;;;;;0.82;0.65;;;9.80;99.90;;;;;;4982594;28;20069;-76
2023/10/30 03:55:28;;;;;;;1.77;1.10;;;9.80;99.90;;;;;;4982938;28;20121;-76
2023/10/30 03:57:54;;;;;;;3.20;1.30;;;9.80;99.90;;;;;;4983773;28;20038;-76
2023/10/30 04:00:19;;;;;;;1.63;1.20;;;9.80;99.90;;;;;;4981598;28;20049;-76
2023/10/30 04:02:45;;;;;;;3.22;0.90;;;9.80;99.90;;;;;;4981672;28;20061;-76
2023/10/30 04:05:11;;;;;;;7.30;1.30;;;9.80;99.90;;;;;;4965653;28;20106;-76
2023/10/30 04:07:36;;;;;;;6.15;2.15;;;9.80;99.90;;;;;;4980330;28;20497;-77
2023/10/30 04:10:02;;;;;;;2.53;1.17;;;9.80;99.90;;;;;;4983398;28;20085;-76
2023/10/30 04:12:28;;;;;;;1.30;1.08;;;9.90;99.90;;;;;;4981037;28;20125;-76
2023/10/30 04:14:54;;;;;;;3.72;1.23;;;9.90;99.90;;;;;;4982109;28;20333;-76
2023/10/30 04:17:20;;;;;;;1.02;0.80;;;9.90;99.90;;;;;;4980765;28;20104;-76
2023/10/30 04:19:45;;;;;;;6.72;1.85;;;10.00;99.90;;;;;;4981748;28;20062;-76
2023/10/30 04:22:11;;;;;;;3.03;1.65;;;10.00;99.90;;;;;;4980693;28;20046;-76
2023/10/30 04:24:36;;;;;;;6.47;1.60;;;10.00;99.90;;;;;;4982588;28;20034;-77
2023/10/30 04:27:02;;;;;;;2.30;1.30;;;10.00;99.90;;;;;;4981969;28;20050;-76
2023/10/30 04:29:28;;;;;;;3.28;0.70;;;10.00;99.90;;;;;;4982187;28;20131;-76
2023/10/30 04:31:54;;;;;;;5.70;1.17;;;10.00;99.90;;;;;;4982717;28;20600;-76
2023/10/30 04:34:20;;;;;;;1.63;0.88;;;10.00;99.90;;;;;;4982488;28;20038;-76
2023/10/30 04:36:45;;;;;;;2.15;0.90;;;10.00;99.90;;;;;;4980454;28;20047;-76
2023/10/30 04:39:13;;;;;;;5.50;1.23;;;10.00;99.90;;;;;;4981803;28;20042;-76
2023/10/30 04:41:39;;;;;;;2.35;1.15;;;10.00;99.90;;;;;;4981041;28;20053;-76
2023/10/30 04:44:05;;;;;;;1.10;0.73;;;10.00;99.90;;;;;;4981280;28;20638;-77
2023/10/30 04:46:31;;;;;;;3.25;0.82;;;10.00;99.90;;;;;;4981557;28;20047;-76
2023/10/30 04:48:57;;;;;;;4.55;0.95;;;10.00;99.90;;;;;;4982807;28;20581;-76
2023/10/30 04:51:22;;;;;;;5.28;1.77;;;10.00;99.90;;;;;;4981040;28;20122;-76
2023/10/30 04:53:48;;;;;;;4.68;1.85;;;10.00;99.90;;;;;;4982792;28;20050;-76
2023/10/30 04:56:13;;;;;;;1.13;0.68;;;10.00;99.90;;;;;;4982048;28;20042;-76
2023/10/30 04:58:39;;;;;;;4.55;1.10;;;10.00;99.90;;;;;;4980557;28;20125;-77
2023/10/30 05:01:09;;;;;;;2.78;0.98;;;10.00;99.90;;;;;;4981051;28;20043;-77
2023/10/30 05:03:36;;;;;;;4.15;1.25;;;10.00;99.90;;;;;;4980962;28;20059;-77
2023/10/30 05:06:02;;;;;;;4.47;1.23;;;10.00;99.90;;;;;;4981755;28;20062;-76
2023/10/30 05:08:27;;;;;;;4.00;1.27;;;10.00;99.90;;;;;;4980420;28;20057;-76
2023/10/30 05:10:53;;;;;;;4.13;1.55;;;10.00;99.90;;;;;;4982461;28;20043;-76
2023/10/30 05:13:20;;;;;;;1.38;0.93;;;10.00;99.90;;;;;;4981794;28;20038;-76
2023/10/30 05:15:45;;;;;;;2.75;1.15;;;9.90;99.90;;;;;;4982274;28;20128;-76
2023/10/30 05:18:11;;;;;;;1.35;1.00;;;9.90;99.90;;;;;;4982044;28;20089;-77
2023/10/30 05:20:37;;;;;;;3.38;1.73;;;9.90;99.90;;;;;;4981610;28;20378;-76
2023/10/30 05:23:03;;;;;;;2.40;0.82;;;9.80;99.90;;;;;;4982165;28;20049;-76
2023/10/30 05:25:28;;;;;;;4.57;1.05;;;9.80;99.90;;;;;;4980865;28;20097;-76
2023/10/30 05:27:54;;;;;;;2.28;0.90;;;9.80;99.90;;;;;;4981516;28;20049;-76
2023/10/30 05:30:20;;;;;;;5.32;1.55;;;9.80;99.90;;;;;;4980118;28;20038;-76
2023/10/30 05:32:45;;;;;;;5.43;1.45;;;9.80;99.90;;;;;;4981092;28;20038;-76
2023/10/30 05:35:11;;;;;;;4.25;1.25;;;9.80;99.90;;;;;;4980834;28;20085;-77
2023/10/30 05:37:37;;;;;;;2.40;0.90;;;9.80;99.90;;;;;;4982245;28;20414;-77
2023/10/30 05:40:03;;;;;;;4.20;1.10;;;9.80;99.90;;;;;;4981839;28;20034;-76
2023/10/30 05:42:28;;;;;;;4.15;0.98;;;9.80;99.90;;;;;;4964111;28;20050;-76
2023/10/30 05:44:54;;;;;;;2.15;0.82;;;9.80;99.90;;;;;;4982758;28;20062;-76
2023/10/30 05:47:20;;;;;;;3.40;1.40;;;9.80;99.90;;;;;;4981328;28;20193;-76
2023/10/30 05:49:45;;;;;;;2.03;0.77;;;9.80;99.90;;;;;;4980426;28;20054;-76
2023/10/30 05:52:11;;;;;;;4.20;1.50;;;9.80;99.90;;;;;;4979237;28;20038;-77
2023/10/30 05:54:37;;;;;;;1.25;1.00;;;9.70;99.90;;;;;;4980632;28;20054;-77
2023/10/30 05:57:03;;;;;;;6.20;1.83;;;9.80;99.90;;;;;;4980757;28;20046;-76
2023/10/30 05:59:28;;;;;;;2.50;0.65;;;9.70;99.90;;;;;;4980639;28;20505;-76
2023/10/30 06:01:54;;;;;;;5.80;1.42;;;9.70;99.90;;;;;;4982063;28;20038;-76
2023/10/30 06:04:19;;;;;;;0.85;0.80;;;9.70;99.90;;;;;;4983313;28;20452;-76
2023/10/30 06:06:45;;;;;;;5.32;1.52;;;9.70;99.90;;;;;;4983326;28;20075;-76
2023/10/30 06:09:11;;;;;;;3.92;1.00;;;9.70;99.90;;;;;;4983837;28;20061;-77
2023/10/30 06:11:37;;;;;;;3.20;1.65;;;9.60;99.90;;;;;;4973210;28;20050;-77
2023/10/30 06:14:02;;;;;;;5.75;1.02;;;9.60;99.90;;;;;;4993724;28;20121;-76
2023/10/30 06:16:28;;;;;;;5.00;1.05;;;9.60;99.90;;;;;;4972959;28;20042;-76
2023/10/30 06:18:53;;;;;;;2.83;0.88;;;9.60;99.90;;;;;;4984460;28;20088;-76
2023/10/30 06:21:20;;;;;;;2.40;0.75;;;9.60;99.90;;;;;;4982247;28;20042;-76
2023/10/30 06:23:45;;;;;;;1.33;0.85;;;9.60;99.90;;;;;;4984070;28;20046;-76
2023/10/30 06:26:13;;;;;;;4.90;1.65;;;9.60;99.90;;;;;;4983398;28;20104;-76
2023/10/30 06:28:39;;;;;;;2.22;1.10;;;9.60;99.90;;;;;;4983747;28;20457;-76
2023/10/30 06:31:16;;;;;;;2.78;0.73;;;9.50;99.90;;;;;;4983152;28;21031;-76
2023/10/30 06:33:42;;;;;;;0.98;0.65;;;9.50;99.90;;;;;;4967129;28;20077;-76
2023/10/30 06:36:08;;;;;;;3.72;0.88;;;9.60;99.90;;;;;;4985627;28;20137;-76
2023/10/30 06:38:34;;;;;;;2.28;1.13;;;9.50;99.90;;;;;;4988923;28;20133;-77
2023/10/30 06:41:00;;;;;;;3.25;1.08;;;9.50;99.90;;;;;;4985657;28;20642;-76
2023/10/30 06:43:25;;;;;;;5.63;0.98;;;9.60;99.90;;;;;;4985779;28;20066;-78
2023/10/30 06:46:04;;;;;;;3.13;1.50;;;9.60;99.90;;;;;;4988120;28;20049;-78
2023/10/30 06:48:30;;;;;;;1.73;0.80;;;9.60;99.90;;;;;;4984945;28;20124;-76
2023/10/30 06:50:56;;;;;;;2.65;1.15;;;9.50;99.90;;;;;;4985201;28;20508;-76
2023/10/30 06:53:22;;;;;;;2.03;1.63;;;9.60;99.90;;;;;;4988685;28;20298;-76
2023/10/30 06:55:48;;;;;;;1.98;1.00;;;9.60;99.90;;;;;;4986145;28;20050;-77
2023/10/30 06:58:13;;;;;;;7.07;1.77;;;9.60;99.90;;;;;;4981574;28;20049;-78
2023/10/30 07:00:39;;;;;;;1.98;1.23;;;9.60;99.90;;;;;;4980966;28;20058;-78
2023/10/30 07:03:05;;;;;;;4.25;0.93;;;9.60;99.90;;;;;;4981188;28;20046;-80
2023/10/30 07:05:30;;;;;;;2.55;1.70;;;9.60;99.90;;;;;;4981760;28;20093;-79
2023/10/30 07:07:56;;;;;;;3.42;1.55;;;9.70;99.90;;;;;;4986451;28;20038;-77
2023/10/30 07:10:21;;;;;;;3.20;1.08;;;9.70;99.90;;;;;;4987330;28;20153;-77
2023/10/30 07:12:47;;;;;;;3.40;1.27;;;9.70;99.90;;;;;;4958650;28;20047;-76
2023/10/30 07:15:13;;;;;;;3.03;1.23;;;9.80;99.90;;;;;;4980567;28;20038;-78
2023/10/30 07:17:38;;;;;;;7.75;1.83;;;9.80;99.90;;;;;;4984326;28;20469;-77
2023/10/30 07:20:04;;;;;;;5.07;0.95;;;9.80;99.90;;;;;;4981319;28;20050;-77
2023/10/30 07:22:30;;;;;;;4.45;1.00;;;9.80;99.90;;;;;;4990236;28;20128;-77
2023/10/30 07:25:00;;;;;;;8.77;1.58;;;9.80;99.90;;;;;;4988577;28;20129;-78
2023/10/30 07:27:26;;;;;;;1.98;1.30;;;9.80;99.90;;;;;;4990027;28;20046;-76
2023/10/30 07:29:52;;;;;;;6.55;1.45;;;9.90;99.90;;;;;;4982428;28;20057;-77
2023/10/30 07:32:17;;;;;;;6.25;1.75;;;9.90;99.90;;;;;;4987395;28;20046;-78
2023/10/30 07:34:43;;;;;;;4.78;0.75;;;9.90;99.90;;;;;;5001854;28;20459;-77
2023/10/30 07:37:09;;;;;;;4.50;1.55;;;9.90;99.90;;;;;;4988844;28;20050;-78
2023/10/30 07:39:35;;;;;;;3.67;1.10;;;10.00;99.90;;;;;;4977058;28;20042;-78
2023/10/30 07:42:01;;;;;;;1.77;1.30;;;10.00;99.90;;;;;;4983482;28;20065;-76
2023/10/30 07:44:26;;;;;;;0.88;0.85;;;10.00;99.90;;;;;;4988594;28;20178;-77
2023/10/30 07:46:52;;;;;;;3.92;1.42;;;10.10;99.90;;;;;;4985199;28;20058;-78
2023/10/30 07:49:18;;;;;;;2.55;1.23;;;10.10;99.90;;;;;;4981005;28;20057;-78
2023/10/30 07:51:43;;;;;;;1.75;1.23;;;10.10;99.90;;;;;;4980393;28;20101;-77
2023/10/30 07:54:09;;;;;;;2.58;1.25;;;10.20;99.90;;;;;;4993572;28;20401;-76
2023/10/30 07:56:34;;;;;;;6.28;1.58;;;10.20;99.90;;;;;;4985604;28;20046;-77
2023/10/30 07:59:00;;;;;;;5.03;1.73;;;10.30;99.90;;;;;;4981378;28;20086;-77
2023/10/30 08:01:26;;;;;;;5.53;0.90;;;10.30;99.90;;;;;;4982017;28;20041;-77
2023/10/30 08:03:51;;;;;;;1.83;0.73;;;10.30;99.90;;;;;;4980710;28;20613;-77
2023/10/30 08:06:17;;;;;;;4.03;1.52;;;10.40;99.90;;;;;;4981643;28;20050;-77
2023/10/30 08:08:42;;;;;;;11.20;1.75;;;10.30;99.90;;;;;;4966047;28;20111;-77
2023/10/30 08:11:11;;;;;;;1.20;1.05;;;10.40;99.90;;;;;;4984409;28;20711;-77
2023/10/30 08:13:37;;;;;;;5.05;1.35;;;10.40;99.90;;;;;;4983196;28;20042;-77
2023/10/30 08:16:03;;;;;;;4.13;1.30;;;10.40;99.90;;;;;;4982190;28;20081;-76
2023/10/30 08:18:29;;;;;;;5.00;0.98;;;10.40;99.90;;;;;;4983913;28;20052;-77
2023/10/30 08:20:57;;;;;;;5.50;1.10;;;10.50;99.90;;;;;;4988562;28;20392;-77
2023/10/30 08:23:23;;;;;;;4.00;1.65;;;10.50;99.90;;;;;;4973953;28;20054;-76
2023/10/30 08:25:49;;;;;;;2.38;1.20;;;10.50;99.90;;;;;;4988273;28;20046;-78
2023/10/30 08:28:14;;;;;;;5.63;0.95;;;10.50;99.90;;;;;;4984175;28;20137;-79
2023/10/30 08:30:40;;;;;;;6.97;1.40;;;10.60;99.90;;;;;;4992544;28;20044;-79
2023/10/30 08:33:06;;;;;;;6.43;2.60;;;10.60;99.90;;;;;;4989746;28;20081;-79
2023/10/30 08:35:35;;;;;;;3.35;0.80;;;10.60;99.90;;;;;;4980692;28;20390;-79
2023/10/30 08:38:00;;;;;;;2.15;1.45;;;10.60;99.90;;;;;;4977587;28;20034;-78
2023/10/30 08:40:26;;;;;;;5.88;1.15;;;10.70;99.90;;;;;;4979187;28;20097;-81
2023/10/30 08:42:51;;;;;;;1.98;1.13;;;10.70;99.90;;;;;;4978926;28;20057;-77
2023/10/30 08:45:17;;;;;;;3.05;1.67;;;10.70;99.90;;;;;;4979719;28;20065;-78
2023/10/30 08:47:43;;;;;;;4.50;1.50;;;10.70;99.90;;;;;;4980518;28;20049;-78
2023/10/30 08:50:10;;;;;;;5.72;1.63;;;10.80;99.90;;;;;;4983254;28;20030;-78
2023/10/30 08:52:36;;;;;;;2.33;0.98;;;10.80;99.90;;;;;;4986290;28;20046;-78
2023/10/30 08:55:02;;;;;;;9.18;1.40;;;10.70;99.90;;;;;;4981880;28;20045;-77
2023/10/30 08:57:28;;;;;;;6.65;1.30;;;10.80;99.90;;;;;;4982693;28;20109;-78
2023/10/30 08:59:53;;;;;;;3.65;1.20;;;10.80;99.90;;;;;;4979036;28;20181;-78
2023/10/30 09:02:19;;;;;;;2.75;1.13;;;10.80;99.90;;;;;;4982848;28;20137;-77
2023/10/30 09:04:45;;;;;;;4.13;1.63;;;10.90;99.90;;;;;;4980102;28;20042;-78
2023/10/30 09:07:11;;;;;;;2.83;1.20;;;10.90;99.90;;;;;;4978482;28;20607;-78
2023/10/30 09:09:36;;;;;;;5.10;1.38;;;11.00;99.90;;;;;;4981395;28;20056;-78
2023/10/30 09:12:02;;;;;;;6.82;1.73;;;11.00;99.90;;;;;;4988059;28;20387;-77
2023/10/30 09:14:28;;;;;;;6.20;1.08;;;11.10;99.90;;;;;;4988347;28;20129;-76
2023/10/30 09:16:54;;;;;;;2.58;1.45;;;11.10;99.90;;;;;;4983347;28;20116;-74
2023/10/30 09:19:19;;;;;;;2.33;1.48;;;11.20;99.90;;;;;;4977805;28;20042;-77
2023/10/30 09:21:45;;;;;;;3.42;1.08;;;11.20;99.90;;;;;;4975965;28;20042;-76
2023/10/30 09:24:11;;;;;;;2.72;1.38;;;11.30;99.90;;;;;;4988245;28;20139;-76
2023/10/30 09:26:36;;;;;;;3.40;1.10;;;11.30;99.90;;;;;;4994396;28;20104;-78
2023/10/30 09:29:02;;;;;;;6.55;1.65;;;11.30;99.90;;;;;;4985676;28;20776;-84
2023/10/30 09:31:30;;;;;;;5.78;1.00;;;11.40;99.90;;;;;;4980460;28;20129;-78
2023/10/30 09:33:58;;;;;;;4.30;1.15;;;11.40;99.90;;;;;;4982077;28;20053;-77
2023/10/30 09:36:24;;;;;;;5.13;1.58;;;11.40;99.90;;;;;;4993008;28;20208;-79
2023/10/30 09:38:50;;;;;;;4.95;1.10;;;11.40;99.90;;;;;;5000636;28;20561;-78
2023/10/30 09:41:18;;;;;;;3.78;1.10;;;11.40;99.90;;;;;;4984204;28;20045;-79
2023/10/30 09:43:47;;;;;;;4.22;1.15;;;11.50;99.90;;;;;;4999440;28;20046;-78
2023/10/30 09:46:14;;;;;;;4.18;1.63;;;11.50;99.90;;;;;;4998205;28;20629;-79
2023/10/30 09:48:48;;;;;;;4.03;1.25;;;11.60;99.90;;;;;;4989705;28;20046;-78
2023/10/30 09:51:14;;;;;;;6.55;1.83;;;11.50;99.90;;;;;;4996847;28;20164;-78
2023/10/30 09:53:41;;;;;;;4.70;1.65;;;11.60;99.90;;;;;;5000645;28;20053;-79
2023/10/30 09:56:07;;;;;;;3.38;1.15;;;11.70;99.90;;;;;;5001976;28;20528;-78
2023/10/30 09:58:33;;;;;;;6.47;2.50;;;11.60;99.90;;;;;;5002969;28;20041;-80
2023/10/30 10:00:59;;;;;;;4.80;1.23;;;11.70;99.90;;;;;;5000844;28;20484;-79
2023/10/30 10:03:25;;;;;;;2.33;0.98;;;11.80;99.90;;;;;;5000093;28;20046;-79
2023/10/30 10:05:58;;;;;;;8.02;1.67;;;11.80;99.90;;;;;;4992662;28;20493;-79
2023/10/30 10:08:25;;;;;;;2.30;0.90;;;11.90;99.90;;;;;;4982321;28;20077;-80
2023/10/30 10:10:59;;;;;;;1.85;1.10;;;11.90;99.90;;;;;;5000371;28;20544;-79
2023/10/30 10:13:26;;;;;;;4.85;2.28;;;12.00;99.90;;;;;;4984898;28;20050;-79
2023/10/30 10:15:52;;;;;;;8.77;1.80;;;12.00;99.90;;;;;;4983321;28;20050;-79
2023/10/30 10:18:31;;;;;;;2.92;0.98;;;12.00;99.90;;;;;;4984911;28;20675;-79
2023/10/30 10:21:01;;;;;;;3.72;0.85;;;12.00;99.90;;;;;;4984021;28;20042;-80
2023/10/30 10:23:33;;;;;;;6.22;1.45;;;12.10;99.90;;;;;;4982826;28;20053;-80
2023/10/30 10:26:04;;;;;;;2.70;1.10;;;12.10;99.90;;;;;;4984036;28;20034;-79
2023/10/30 10:28:31;;;;;;;5.93;1.23;;;12.10;99.90;;;;;;4983471;28;20047;-80
2023/10/30 10:30:57;;;;;;;4.53;0.93;;;12.10;99.90;;;;;;4983454;28;20065;-79
2023/10/30 10:33:27;;;;;;;3.17;1.10;;;12.00;99.90;;;;;;4983261;28;20069;-79
2023/10/30 10:35:57;;;;;;;5.20;2.67;;;12.00;99.90;;;;;;4976217;28;20047;-78
2023/10/30 10:38:24;;;;;;;3.60;1.10;;;12.00;99.90;;;;;;4970674;28;20051;-79
2023/10/30 10:40:53;;;;;;;3.75;1.17;;;12.00;99.90;;;;;;4967279;28;20349;-79
2023/10/30 10:43:20;;;;;;;1.58;0.88;;;12.00;99.90;;;;;;4962901;28;20696;-79
2023/10/30 10:45:46;;;;;;;4.22;1.20;;;12.00;99.90;;;;;;4970188;28;20046;-78
2023/10/30 10:48:12;;;;;;;2.28;1.27;;;12.00;99.90;;;;;;4961993;28;20493;-79
2023/10/30 10:50:38;;;;;;;3.72;1.13;;;12.00;99.90;;;;;;4970698;28;20489;-80
2023/10/30 10:53:06;;;;;;;3.67;1.23;;;12.00;99.90;;;;;;4981401;28;20042;-79
2023/10/30 10:55:35;;;;;;;3.75;1.45;;;12.00;99.90;;;;;;4982162;28;20156;-79
2023/10/30 10:58:32;;;;;;;2.58;1.55;;;12.10;99.90;;;;;;4969529;28;20429;-79
2023/10/30 11:00:59;;;;;;;7.05;1.30;;;12.10;99.90;;;;;;4978536;28;20524;-79
2023/10/30 11:03:27;;;;;;;3.53;1.17;;;12.10;99.90;;;;;;4982657;28;20354;-80
2023/10/30 11:05:53;;;;;;;6.20;2.13;;;12.10;99.90;;;;;;4981029;28;20487;-78
2023/10/30 11:08:34;;;;;;;2.13;1.00;;;12.10;99.90;;;;;;4968573;28;20042;-80
2023/10/30 11:11:03;;;;;;;6.25;1.27;;;12.10;99.90;;;;;;4964440;28;20058;-80
2023/10/30 11:14:06;;;;;;;5.00;1.58;;;12.10;99.90;;;;;;4962671;28;20039;-79
2023/10/30 11:16:44;;;;;;;3.83;1.60;;;12.10;99.90;;;;;;4972474;28;20046;-79
2023/10/30 11:19:10;;;;;;;4.00;1.30;;;12.20;99.90;;;;;;4948182;28;20346;-79
2023/10/30 11:21:36;;;;;;;4.65;1.70;;;12.30;99.90;;;;;;4981797;28;20266;-79
2023/10/30 11:24:02;;;;;;;4.82;0.98;;;12.30;99.90;;;;;;4975467;28;20097;-79
2023/10/30 11:26:35;;;;;;;3.85;1.20;;;12.30;99.90;;;;;;4968389;28;20474;-80
2023/10/30 11:29:11;;;;;;;3.75;1.42;;;12.40;99.90;;;;;;4947053;28;20057;-79
2023/10/30 11:31:57;;;;;;;6.28;1.45;;;12.40;99.90;;;;;;4964009;28;20658;-79
2023/10/30 11:34:27;;;;;;;3.53;1.33;;;12.40;99.90;;;;;;4980787;28;20331;-75
2023/10/30 11:37:09;;;;;;;3.30;1.55;;;12.40;99.90;;;;;;4982661;28;20152;-75
2023/10/30 11:39:37;;;;;;;3.65;1.20;;;12.40;99.90;;;;;;4980907;28;20050;-75
2023/10/30 11:42:04;;;;;;;4.63;1.33;;;12.40;99.90;;;;;;4981719;28;20501;-75
2023/10/30 11:44:31;;;;;;;4.88;1.42;;;12.40;99.90;;;;;;4981161;28;20058;-75
2023/10/30 11:46:57;;;;;;;8.73;1.80;;;12.40;99.90;;;;;;4982963;28;20062;-75
2023/10/30 11:49:32;;;;;;;4.05;1.17;;;12.40;99.90;;;;;;4980125;28;20151;-74
2023/10/30 11:51:58;;;;;;;8.88;1.48;;;12.40;99.90;;;;;;4982770;28;20073;-74
2023/10/30 11:54:33;;;;;;;3.45;1.20;;;12.40;99.90;;;;;;4982485;28;20501;-75
2023/10/30 11:57:00;;;;;;;5.60;1.67;;;12.40;99.90;;;;;;4977964;28;20031;-75
2023/10/30 11:59:30;;;;;;;5.00;1.50;;;12.40;99.90;;;;;;4981046;28;20405;-75
2023/10/30 12:02:01;;;;;;;3.40;0.80;;;12.50;99.90;;;;;;4979939;28;20631;-75
2023/10/30 12:04:27;;;;;;;7.93;2.22;;;12.50;99.90;;;;;;4973317;28;20114;-75
2023/10/30 12:06:56;;;;;;;3.83;1.30;;;12.50;99.90;;;;;;4949608;28;20046;-75
2023/10/30 12:09:21;;;;;;;4.60;1.60;;;12.50;99.90;;;;;;4979762;28;20057;-75
2023/10/30 12:11:49;;;;;;;3.05;0.88;;;12.50;99.90;;;;;;4980580;28;20494;-75
2023/10/30 12:14:20;;;;;;;4.60;1.67;;;12.50;99.90;;;;;;4980966;28;20564;-75
2023/10/30 12:16:50;;;;;;;5.30;1.47;;;12.50;99.90;;;;;;4979197;28;20042;-75
2023/10/30 12:19:20;;;;;;;2.05;1.25;;;12.50;99.90;;;;;;4981244;28;20129;-75
2023/10/30 12:21:46;;;;;;;6.15;1.38;;;12.60;99.90;;;;;;4981342;28;20054;-75
2023/10/30 12:24:15;;;;;;;2.88;0.93;;;12.60;99.90;;;;;;4963749;28;20034;-75
2023/10/30 12:26:41;;;;;;;6.88;1.17;;;12.60;99.90;;;;;;4979374;28;20052;-75
2023/10/30 12:29:07;;;;;;;3.85;1.10;;;12.60;99.90;;;;;;4980806;28;20043;-75
2023/10/30 12:31:34;;;;;;;7.50;2.08;;;12.60;99.90;;;;;;4980750;28;20046;-75
2023/10/30 12:34:22;;;;;;;3.67;0.75;;;12.60;99.90;;;;;;4979859;28;20077;-75
2023/10/30 12:36:48;;;;;;;2.30;1.20;;;12.50;99.90;;;;;;4980126;28;20053;-75
2023/10/30 12:39:24;;;;;;;8.02;1.35;;;12.50;99.90;;;;;;4979745;28;20444;-75
2023/10/30 12:41:55;;;;;;;4.28;1.98;;;12.50;99.90;;;;;;4979735;28;20390;-75
2023/10/30 12:44:23;;;;;;;4.75;1.73;;;12.60;99.90;;;;;;4979562;28;20070;-75
2023/10/30 12:46:49;;;;;;;3.80;1.55;;;12.50;99.90;;;;;;4981028;28;20046;-75
2023/10/30 12:49:15;;;;;;;7.43;1.13;;;12.50;99.90;;;;;;4979619;28;20177;-75